sensor_id;sensor_type;location;lat;lon;timestamp;temperature;humidity
46890;DHT22;32625;51.080;16.970;2023-02-28T00:00:26;0.50;99.90
46890;DHT22;32625;51.080;16.970;2023-02-28T00:02:54;0.60;99.90
46890;DHT22;32625;51.080;16.970;2023-02-28T00:05:22;0.60;99.90
46890;DHT22;32625;51.080;16.970;2023-02-28T00:07:49;0.60;99.90
46890;DHT22;32625;51.080;16.970;2023-02-28T00:10:21;0.60;99.90
46890;DHT22;32625;51.080;16.970;2023-02-28T00:12:49;0.60;99.90
46890;DHT22;32625;51.080;16.970;2023-02-28T00:15:17;0.50;99.90
46890;DHT22;32625;51.080;16.970;2023-02-28T00:17:44;0.60;99.90
46890;DHT22;32625;51.080;16.970;2023-02-28T00:20:12;0.60;99.90
46890;DHT22;32625;51.080;16.970;2023-02-28T00:22:47;0.60;99.90
46890;DHT22;32625;51.080;16.970;2023-02-28T00:25:15;0.50;99.90
46890;DHT22;32625;51.080;16.970;2023-02-28T00:27:43;0.50;99.90
46890;DHT22;32625;51.080;16.970;2023-02-28T00:30:11;0.50;99.90
46890;DHT22;32625;51.080;16.970;2023-02-28T00:32:38;0.60;99.90
46890;DHT22;32625;51.080;16.970;2023-02-28T00:35:06;0.60;99.90
46890;DHT22;32625;51.080;16.970;2023-02-28T00:37:34;0.50;99.90
46890;DHT22;32625;51.080;16.970;2023-02-28T00:40:01;0.60;99.90
46890;DHT22;32625;51.080;16.970;2023-02-28T00:42:31;0.60;99.90
46890;DHT22;32625;51.080;16.970;2023-02-28T00:44:58;0.70;99.90
46890;DHT22;32625;51.080;16.970;2023-02-28T00:47:25;0.30;99.90
46890;DHT22;32625;51.080;16.970;2023-02-28T00:49:52;0.60;99.90
46890;DHT22;32625;51.080;16.970;2023-02-28T00:52:19;0.60;99.90
46890;DHT22;32625;51.080;16.970;2023-02-28T00:54:46;0.70;99.90
46890;DHT22;32625;51.080;16.970;2023-02-28T00:57:14;0.60;99.90
46890;DHT22;32625;51.080;16.970;2023-02-28T00:59:41;0.60;99.90
46890;DHT22;32625;51.080;16.970;2023-02-28T01:02:08;0.60;99.90
46890;DHT22;32625;51.080;16.970;2023-02-28T01:04:36;0.60;99.90
46890;DHT22;32625;51.080;16.970;2023-02-28T01:07:03;0.60;99.90
46890;DHT22;32625;51.080;16.970;2023-02-28T01:09:30;0.50;99.90
46890;DHT22;32625;51.080;16.970;2023-02-28T01:11:57;0.50;99.90
46890;DHT22;32625;51.080;16.970;2023-02-28T01:14:24;0.50;99.90
46890;DHT22;32625;51.080;16.970;2023-02-28T01:16:51;0.50;99.90
46890;DHT22;32625;51.080;16.970;2023-02-28T01:19:18;0.50;99.90
46890;DHT22;32625;51.080;16.970;2023-02-28T01:21:45;0.50;99.90
46890;DHT22;32625;51.080;16.970;2023-02-28T01:24:12;0.50;99.90
46890;DHT22;32625;51.080;16.970;2023-02-28T01:26:39;0.50;99.90
46890;DHT22;32625;51.080;16.970;2023-02-28T01:29:06;0.50;99.90
46890;DHT22;32625;51.080;16.970;2023-02-28T01:31:34;0.50;99.90
46890;DHT22;32625;51.080;16.970;2023-02-28T01:34:01;0.50;99.90
46890;DHT22;32625;51.080;16.970;2023-02-28T01:36:28;0.50;99.90
46890;DHT22;32625;51.080;16.970;2023-02-28T01:38:55;0.40;99.90
46890;DHT22;32625;51.080;16.970;2023-02-28T01:41:23;0.40;99.90
46890;DHT22;32625;51.080;16.970;2023-02-28T01:43:54;0.40;99.90
46890;DHT22;32625;51.080;16.970;2023-02-28T01:46:21;0.30;99.90
46890;DHT22;32625;51.080;16.970;2023-02-28T01:48:53;0.30;99.90
46890;DHT22;32625;51.080;16.970;2023-02-28T01:51:27;0.40;99.90
46890;DHT22;32625;51.080;16.970;2023-02-28T01:53:58;0.30;99.90
46890;DHT22;32625;51.080;16.970;2023-02-28T01:56:28;0.30;99.90
46890;DHT22;32625;51.080;16.970;2023-02-28T01:58:56;0.30;99.90
46890;DHT22;32625;51.080;16.970;2023-02-28T02:01:23;0.30;99.90
46890;DHT22;32625;51.080;16.970;2023-02-28T02:03:57;0.30;99.90
46890;DHT22;32625;51.080;16.970;2023-02-28T02:06:26;-0.40;99.90
46890;DHT22;32625;51.080;16.970;2023-02-28T02:08:54;0.30;99.90
46890;DHT22;32625;51.080;16.970;2023-02-28T02:11:22;0.20;99.90
46890;DHT22;32625;51.080;16.970;2023-02-28T02:16:39;0.30;99.90
46890;DHT22;32625;51.080;16.970;2023-02-28T02:21:47;0.20;99.90
46890;DHT22;32625;51.080;16.970;2023-02-28T02:24:31;0.20;99.90
46890;DHT22;32625;51.080;16.970;2023-02-28T02:27:20;0.20;99.90
46890;DHT22;32625;51.080;16.970;2023-02-28T02:33:10;0.10;99.90
46890;DHT22;32625;51.080;16.970;2023-02-28T02:35:47;0.20;99.90
46890;DHT22;32625;51.080;16.970;2023-02-28T02:38:29;0.20;99.90
46890;DHT22;32625;51.080;16.970;2023-02-28T02:41:02;0.20;99.90
46890;DHT22;32625;51.080;16.970;2023-02-28T02:44:05;0.20;99.90
46890;DHT22;32625;51.080;16.970;2023-02-28T02:46:34;0.10;99.90
46890;DHT22;32625;51.080;16.970;2023-02-28T02:49:05;0.10;99.90
46890;DHT22;32625;51.080;16.970;2023-02-28T02:51:34;0.10;99.90
46890;DHT22;32625;51.080;16.970;2023-02-28T02:54:03;0.10;99.90
46890;DHT22;32625;51.080;16.970;2023-02-28T02:56:32;0.10;99.90
46890;DHT22;32625;51.080;16.970;2023-02-28T02:59:01;0.10;99.90
46890;DHT22;32625;51.080;16.970;2023-02-28T03:01:30;0.10;99.90
46890;DHT22;32625;51.080;16.970;2023-02-28T03:03:59;0.70;99.90
46890;DHT22;32625;51.080;16.970;2023-02-28T03:06:27;0.30;99.90
46890;DHT22;32625;51.080;16.970;2023-02-28T03:08:54;0.10;99.90
46890;DHT22;32625;51.080;16.970;2023-02-28T03:11:22;0.10;99.90
46890;DHT22;32625;51.080;16.970;2023-02-28T03:14:02;0.00;99.90
46890;DHT22;32625;51.080;16.970;2023-02-28T03:19:33;0.00;99.90
46890;DHT22;32625;51.080;16.970;2023-02-28T03:24:33;0.00;99.90
46890;DHT22;32625;51.080;16.970;2023-02-28T03:27:04;-0.20;99.90
46890;DHT22;32625;51.080;16.970;2023-02-28T03:29:34;0.00;99.90
46890;DHT22;32625;51.080;16.970;2023-02-28T03:35:03;-0.10;99.90
46890;DHT22;32625;51.080;16.970;2023-02-28T03:37:33;0.00;99.90
46890;DHT22;32625;51.080;16.970;2023-02-28T03:40:21;0.00;99.90
46890;DHT22;32625;51.080;16.970;2023-02-28T03:42:50;-0.10;99.90
46890;DHT22;32625;51.080;16.970;2023-02-28T03:45:24;0.00;99.90
46890;DHT22;32625;51.080;16.970;2023-02-28T03:47:53;0.00;99.90
46890;DHT22;32625;51.080;16.970;2023-02-28T03:50:22;0.00;99.90
46890;DHT22;32625;51.080;16.970;2023-02-28T03:52:51;-0.10;99.90
46890;DHT22;32625;51.080;16.970;2023-02-28T03:55:20;0.00;99.90
46890;DHT22;32625;51.080;16.970;2023-02-28T03:57:56;0.00;99.90
46890;DHT22;32625;51.080;16.970;2023-02-28T04:00:29;0.00;99.90
46890;DHT22;32625;51.080;16.970;2023-02-28T04:02:57;0.00;99.90
46890;DHT22;32625;51.080;16.970;2023-02-28T04:05:24;0.00;99.90
46890;DHT22;32625;51.080;16.970;2023-02-28T04:07:51;0.00;99.90
46890;DHT22;32625;51.080;16.970;2023-02-28T04:10:18;0.00;99.90
46890;DHT22;32625;51.080;16.970;2023-02-28T04:12:45;0.00;99.90
46890;DHT22;32625;51.080;16.970;2023-02-28T04:15:12;0.00;99.90
46890;DHT22;32625;51.080;16.970;2023-02-28T04:17:39;0.00;99.90
46890;DHT22;32625;51.080;16.970;2023-02-28T04:20:06;0.00;99.90
46890;DHT22;32625;51.080;16.970;2023-02-28T04:22:36;0.00;99.90
46890;DHT22;32625;51.080;16.970;2023-02-28T04:25:04;0.00;99.90
46890;DHT22;32625;51.080;16.970;2023-02-28T04:27:32;0.00;99.90
46890;DHT22;32625;51.080;16.970;2023-02-28T04:29:59;0.00;99.90
46890;DHT22;32625;51.080;16.970;2023-02-28T04:32:26;0.00;99.90
46890;DHT22;32625;51.080;16.970;2023-02-28T04:34:53;-0.10;99.90
46890;DHT22;32625;51.080;16.970;2023-02-28T04:37:20;0.00;99.90
46890;DHT22;32625;51.080;16.970;2023-02-28T04:39:47;0.00;99.90
46890;DHT22;32625;51.080;16.970;2023-02-28T04:42:14;0.10;99.90
46890;DHT22;32625;51.080;16.970;2023-02-28T04:44:41;0.00;99.90
46890;DHT22;32625;51.080;16.970;2023-02-28T04:47:08;0.00;99.90
46890;DHT22;32625;51.080;16.970;2023-02-28T04:49:35;0.50;99.90
46890;DHT22;32625;51.080;16.970;2023-02-28T04:52:02;0.00;99.90
46890;DHT22;32625;51.080;16.970;2023-02-28T04:54:29;0.00;99.90
46890;DHT22;32625;51.080;16.970;2023-02-28T04:56:56;0.00;99.90
46890;DHT22;32625;51.080;16.970;2023-02-28T04:59:24;0.00;99.90
46890;DHT22;32625;51.080;16.970;2023-02-28T05:01:50;0.00;99.90
46890;DHT22;32625;51.080;16.970;2023-02-28T05:04:17;0.00;99.90
46890;DHT22;32625;51.080;16.970;2023-02-28T05:06:44;0.00;99.90
46890;DHT22;32625;51.080;16.970;2023-02-28T05:09:11;0.00;99.90
46890;DHT22;32625;51.080;16.970;2023-02-28T05:11:39;0.10;99.90
46890;DHT22;32625;51.080;16.970;2023-02-28T05:14:12;0.00;99.90
46890;DHT22;32625;51.080;16.970;2023-02-28T05:16:39;-0.10;99.90
46890;DHT22;32625;51.080;16.970;2023-02-28T05:19:06;0.00;99.90
46890;DHT22;32625;51.080;16.970;2023-02-28T05:21:55;-1.00;99.90
46890;DHT22;32625;51.080;16.970;2023-02-28T05:24:21;-0.10;99.90
46890;DHT22;32625;51.080;16.970;2023-02-28T05:26:52;-0.10;99.90
46890;DHT22;32625;51.080;16.970;2023-02-28T05:29:19;0.00;99.90
46890;DHT22;32625;51.080;16.970;2023-02-28T05:31:46;0.00;99.90
46890;DHT22;32625;51.080;16.970;2023-02-28T05:34:13;0.00;99.90
46890;DHT22;32625;51.080;16.970;2023-02-28T05:36:42;0.00;99.90
46890;DHT22;32625;51.080;16.970;2023-02-28T05:39:09;-0.10;99.90
46890;DHT22;32625;51.080;16.970;2023-02-28T05:41:40;-0.10;99.90
46890;DHT22;32625;51.080;16.970;2023-02-28T05:44:07;-0.10;99.90
46890;DHT22;32625;51.080;16.970;2023-02-28T05:46:34;-0.10;99.90
46890;DHT22;32625;51.080;16.970;2023-02-28T05:49:01;-0.10;99.90
46890;DHT22;32625;51.080;16.970;2023-02-28T05:51:29;-0.10;99.90
46890;DHT22;32625;51.080;16.970;2023-02-28T05:53:58;0.00;99.90
46890;DHT22;32625;51.080;16.970;2023-02-28T05:56:25;-0.10;99.90
46890;DHT22;32625;51.080;16.970;2023-02-28T05:58:52;-1.00;99.90
46890;DHT22;32625;51.080;16.970;2023-02-28T06:01:24;-0.10;99.90
46890;DHT22;32625;51.080;16.970;2023-02-28T06:03:51;-0.10;99.90
46890;DHT22;32625;51.080;16.970;2023-02-28T06:06:18;0.00;99.90
46890;DHT22;32625;51.080;16.970;2023-02-28T06:08:45;-0.30;99.90
46890;DHT22;32625;51.080;16.970;2023-02-28T06:11:12;0.00;99.90
46890;DHT22;32625;51.080;16.970;2023-02-28T06:13:40;0.10;99.90
46890;DHT22;32625;51.080;16.970;2023-02-28T06:16:08;0.00;99.90
46890;DHT22;32625;51.080;16.970;2023-02-28T06:18:35;0.10;99.90
46890;DHT22;32625;51.080;16.970;2023-02-28T06:21:02;0.10;99.90
46890;DHT22;32625;51.080;16.970;2023-02-28T06:23:29;0.10;99.90
46890;DHT22;32625;51.080;16.970;2023-02-28T06:25:56;0.10;99.90
46890;DHT22;32625;51.080;16.970;2023-02-28T06:28:26;0.20;99.90
46890;DHT22;32625;51.080;16.970;2023-02-28T06:30:53;0.30;99.90
46890;DHT22;32625;51.080;16.970;2023-02-28T06:33:20;0.20;99.90
46890;DHT22;32625;51.080;16.970;2023-02-28T06:35:49;0.10;99.90
46890;DHT22;32625;51.080;16.970;2023-02-28T06:38:17;0.20;99.90
46890;DHT22;32625;51.080;16.970;2023-02-28T06:40:44;0.30;99.90
46890;DHT22;32625;51.080;16.970;2023-02-28T06:43:11;0.30;99.90
46890;DHT22;32625;51.080;16.970;2023-02-28T06:45:43;0.40;99.90
46890;DHT22;32625;51.080;16.970;2023-02-28T06:48:10;0.50;99.90
46890;DHT22;32625;51.080;16.970;2023-02-28T06:50:37;0.50;99.90
46890;DHT22;32625;51.080;16.970;2023-02-28T06:53:04;0.40;99.90
46890;DHT22;32625;51.080;16.970;2023-02-28T06:55:31;0.40;99.90
46890;DHT22;32625;51.080;16.970;2023-02-28T06:57:58;0.30;99.90
46890;DHT22;32625;51.080;16.970;2023-02-28T07:00:25;0.30;99.90
46890;DHT22;32625;51.080;16.970;2023-02-28T07:02:52;0.30;99.90
46890;DHT22;32625;51.080;16.970;2023-02-28T07:05:21;-0.40;99.90
46890;DHT22;32625;51.080;16.970;2023-02-28T07:07:48;0.30;99.90
46890;DHT22;32625;51.080;16.970;2023-02-28T07:10:15;0.20;99.90
46890;DHT22;32625;51.080;16.970;2023-02-28T07:12:45;0.20;99.90
46890;DHT22;32625;51.080;16.970;2023-02-28T07:15:12;0.20;99.90
46890;DHT22;32625;51.080;16.970;2023-02-28T07:17:41;0.20;99.90
46890;DHT22;32625;51.080;16.970;2023-02-28T07:20:08;0.30;99.90
46890;DHT22;32625;51.080;16.970;2023-02-28T07:22:35;0.20;99.90
46890;DHT22;32625;51.080;16.970;2023-02-28T07:25:02;0.30;99.90
46890;DHT22;32625;51.080;16.970;2023-02-28T07:27:29;0.40;99.90
46890;DHT22;32625;51.080;16.970;2023-02-28T07:29:56;0.30;99.90
46890;DHT22;32625;51.080;16.970;2023-02-28T07:32:23;0.40;99.90
46890;DHT22;32625;51.080;16.970;2023-02-28T07:34:50;0.40;99.90
46890;DHT22;32625;51.080;16.970;2023-02-28T07:37:17;0.40;99.90
46890;DHT22;32625;51.080;16.970;2023-02-28T07:39:44;0.40;99.90
46890;DHT22;32625;51.080;16.970;2023-02-28T07:42:11;0.40;98.00
46890;DHT22;32625;51.080;16.970;2023-02-28T07:44:39;0.50;97.30
46890;DHT22;32625;51.080;16.970;2023-02-28T07:47:08;0.50;95.20
46890;DHT22;32625;51.080;16.970;2023-02-28T07:49:35;0.50;96.30
46890;DHT22;32625;51.080;16.970;2023-02-28T07:52:03;0.60;94.10
46890;DHT22;32625;51.080;16.970;2023-02-28T07:54:30;0.60;94.10
46890;DHT22;32625;51.080;16.970;2023-02-28T07:56:57;0.60;96.20
46890;DHT22;32625;51.080;16.970;2023-02-28T07:59:24;0.60;93.90
46890;DHT22;32625;51.080;16.970;2023-02-28T08:01:51;0.70;93.10
46890;DHT22;32625;51.080;16.970;2023-02-28T08:04:18;0.70;92.70
46890;DHT22;32625;51.080;16.970;2023-02-28T08:06:45;0.70;93.80
46890;DHT22;32625;51.080;16.970;2023-02-28T08:09:12;0.80;92.40
46890;DHT22;32625;51.080;16.970;2023-02-28T08:11:39;0.80;91.90
46890;DHT22;32625;51.080;16.970;2023-02-28T08:14:06;0.90;91.60
46890;DHT22;32625;51.080;16.970;2023-02-28T08:16:33;0.90;92.70
46890;DHT22;32625;51.080;16.970;2023-02-28T08:19:00;0.90;93.70
46890;DHT22;32625;51.080;16.970;2023-02-28T08:21:27;1.00;90.10
46890;DHT22;32625;51.080;16.970;2023-02-28T08:23:54;1.00;88.70
46890;DHT22;32625;51.080;16.970;2023-02-28T08:26:23;1.00;89.90
46890;DHT22;32625;51.080;16.970;2023-02-28T08:28:50;1.10;90.00
46890;DHT22;32625;51.080;16.970;2023-02-28T08:31:18;1.10;86.70
46890;DHT22;32625;51.080;16.970;2023-02-28T08:33:45;1.20;83.90
46890;DHT22;32625;51.080;16.970;2023-02-28T08:36:12;1.20;83.10
46890;DHT22;32625;51.080;16.970;2023-02-28T08:38:39;1.30;81.60
46890;DHT22;32625;51.080;16.970;2023-02-28T08:41:11;1.30;81.30
46890;DHT22;32625;51.080;16.970;2023-02-28T08:43:39;1.30;81.80
46890;DHT22;32625;51.080;16.970;2023-02-28T08:46:06;1.40;82.00
46890;DHT22;32625;51.080;16.970;2023-02-28T08:48:34;1.40;82.90
46890;DHT22;32625;51.080;16.970;2023-02-28T08:51:06;1.50;84.70
46890;DHT22;32625;51.080;16.970;2023-02-28T08:53:35;1.40;82.90
46890;DHT22;32625;51.080;16.970;2023-02-28T08:56:03;1.50;84.10
46890;DHT22;32625;51.080;16.970;2023-02-28T08:58:31;1.60;85.90
46890;DHT22;32625;51.080;16.970;2023-02-28T09:00:58;1.70;78.80
46890;DHT22;32625;51.080;16.970;2023-02-28T09:03:25;1.70;78.80
46890;DHT22;32625;51.080;16.970;2023-02-28T09:05:54;1.70;79.60
46890;DHT22;32625;51.080;16.970;2023-02-28T09:08:21;1.60;77.80
46890;DHT22;32625;51.080;16.970;2023-02-28T09:10:48;1.60;82.70
46890;DHT22;32625;51.080;16.970;2023-02-28T09:13:15;1.80;78.50
46890;DHT22;32625;51.080;16.970;2023-02-28T09:15:42;1.90;77.60
46890;DHT22;32625;51.080;16.970;2023-02-28T09:18:09;2.00;76.40
46890;DHT22;32625;51.080;16.970;2023-02-28T09:20:37;1.90;73.70
46890;DHT22;32625;51.080;16.970;2023-02-28T09:23:05;2.00;73.70
46890;DHT22;32625;51.080;16.970;2023-02-28T09:25:32;2.00;72.40
46890;DHT22;32625;51.080;16.970;2023-02-28T09:27:59;1.90;70.80
46890;DHT22;32625;51.080;16.970;2023-02-28T09:30:27;1.90;70.80
46890;DHT22;32625;51.080;16.970;2023-02-28T09:32:54;1.90;70.10
46890;DHT22;32625;51.080;16.970;2023-02-28T09:35:21;2.00;69.90
46890;DHT22;32625;51.080;16.970;2023-02-28T09:37:49;2.20;71.40
46890;DHT22;32625;51.080;16.970;2023-02-28T09:40:22;2.20;68.70
46890;DHT22;32625;51.080;16.970;2023-02-28T09:42:51;2.20;67.40
46890;DHT22;32625;51.080;16.970;2023-02-28T09:45:52;2.20;67.90
46890;DHT22;32625;51.080;16.970;2023-02-28T09:48:16;2.20;68.00
46890;DHT22;32625;51.080;16.970;2023-02-28T09:50:48;2.20;67.20
46890;DHT22;32625;51.080;16.970;2023-02-28T09:53:30;2.20;69.10
46890;DHT22;32625;51.080;16.970;2023-02-28T09:58:39;2.20;71.40
46890;DHT22;32625;51.080;16.970;2023-02-28T10:01:12;2.20;72.80
46890;DHT22;32625;51.080;16.970;2023-02-28T10:03:55;2.30;70.70
46890;DHT22;32625;51.080;16.970;2023-02-28T10:06:23;2.40;67.60
46890;DHT22;32625;51.080;16.970;2023-02-28T10:11:25;2.50;65.70
46890;DHT22;32625;51.080;16.970;2023-02-28T10:14:01;2.50;65.90
46890;DHT22;32625;51.080;16.970;2023-02-28T10:16:36;2.50;66.70
46890;DHT22;32625;51.080;16.970;2023-02-28T10:19:09;2.60;66.10
46890;DHT22;32625;51.080;16.970;2023-02-28T10:21:40;2.60;67.40
46890;DHT22;32625;51.080;16.970;2023-02-28T10:24:16;1.80;65.50
46890;DHT22;32625;51.080;16.970;2023-02-28T10:26:45;2.70;65.70
46890;DHT22;32625;51.080;16.970;2023-02-28T10:29:14;2.80;65.50
46890;DHT22;32625;51.080;16.970;2023-02-28T10:31:41;2.80;64.90
46890;DHT22;32625;51.080;16.970;2023-02-28T10:34:10;2.70;63.20
46890;DHT22;32625;51.080;16.970;2023-02-28T10:36:38;2.70;63.60
46890;DHT22;32625;51.080;16.970;2023-02-28T10:39:51;2.70;64.60
46890;DHT22;32625;51.080;16.970;2023-02-28T10:41:53;2.80;64.30
46890;DHT22;32625;51.080;16.970;2023-02-28T10:44:21;2.80;62.30
46890;DHT22;32625;51.080;16.970;2023-02-28T10:46:49;2.70;62.10
46890;DHT22;32625;51.080;16.970;2023-02-28T10:49:23;2.80;62.90
46890;DHT22;32625;51.080;16.970;2023-02-28T10:51:52;2.80;63.00
46890;DHT22;32625;51.080;16.970;2023-02-28T10:54:20;2.90;62.70
46890;DHT22;32625;51.080;16.970;2023-02-28T10:59:35;2.90;61.60
46890;DHT22;32625;51.080;16.970;2023-02-28T11:02:02;2.90;62.70
46890;DHT22;32625;51.080;16.970;2023-02-28T11:06:57;3.00;62.80
46890;DHT22;32625;51.080;16.970;2023-02-28T11:09:28;2.30;62.80
46890;DHT22;32625;51.080;16.970;2023-02-28T11:11:57;3.00;62.60
46890;DHT22;32625;51.080;16.970;2023-02-28T11:14:25;2.90;63.20
46890;DHT22;32625;51.080;16.970;2023-02-28T11:16:53;3.00;63.40
46890;DHT22;32625;51.080;16.970;2023-02-28T11:19:22;3.10;64.00
46890;DHT22;32625;51.080;16.970;2023-02-28T11:21:57;3.10;64.70
46890;DHT22;32625;51.080;16.970;2023-02-28T11:24:26;3.10;64.40
46890;DHT22;32625;51.080;16.970;2023-02-28T11:26:55;3.20;63.10
46890;DHT22;32625;51.080;16.970;2023-02-28T11:29:26;3.20;62.60
46890;DHT22;32625;51.080;16.970;2023-02-28T11:34:40;3.40;62.90
46890;DHT22;32625;51.080;16.970;2023-02-28T11:37:12;3.50;64.70
46890;DHT22;32625;51.080;16.970;2023-02-28T11:39:39;3.60;64.50
46890;DHT22;32625;51.080;16.970;2023-02-28T11:44:42;3.60;61.80
46890;DHT22;32625;51.080;16.970;2023-02-28T11:47:25;3.60;62.20
46890;DHT22;32625;51.080;16.970;2023-02-28T11:52:54;3.60;62.40
46890;DHT22;32625;51.080;16.970;2023-02-28T11:55:28;3.60;62.90
46890;DHT22;32625;51.080;16.970;2023-02-28T12:03:12;3.70;63.10
46890;DHT22;32625;51.080;16.970;2023-02-28T12:06:01;3.70;62.70
46890;DHT22;32625;51.080;16.970;2023-02-28T12:08:54;3.70;61.60
46890;DHT22;32625;51.080;16.970;2023-02-28T12:16:59;3.90;60.10
46890;DHT22;32625;51.080;16.970;2023-02-28T12:19:50;3.80;60.30
46890;DHT22;32625;51.080;16.970;2023-02-28T12:22:25;3.70;60.20
46890;DHT22;32625;51.080;16.970;2023-02-28T12:27:37;3.80;60.10
46890;DHT22;32625;51.080;16.970;2023-02-28T12:32:49;3.90;60.90
46890;DHT22;32625;51.080;16.970;2023-02-28T12:35:19;3.80;60.00
46890;DHT22;32625;51.080;16.970;2023-02-28T12:37:54;3.90;61.80
46890;DHT22;32625;51.080;16.970;2023-02-28T12:40:23;4.00;62.30
46890;DHT22;32625;51.080;16.970;2023-02-28T12:42:52;4.00;60.60
46890;DHT22;32625;51.080;16.970;2023-02-28T12:45:22;4.10;61.00
46890;DHT22;32625;51.080;16.970;2023-02-28T12:47:51;4.10;60.40
46890;DHT22;32625;51.080;16.970;2023-02-28T12:50:19;4.10;61.30
46890;DHT22;32625;51.080;16.970;2023-02-28T12:52:48;4.20;60.80
46890;DHT22;32625;51.080;16.970;2023-02-28T12:57:50;4.10;60.50
46890;DHT22;32625;51.080;16.970;2023-02-28T13:00:19;4.20;61.60
46890;DHT22;32625;51.080;16.970;2023-02-28T13:05:28;4.20;63.60
46890;DHT22;32625;51.080;16.970;2023-02-28T13:08:08;4.30;65.50
46890;DHT22;32625;51.080;16.970;2023-02-28T13:10:39;4.40;66.70
46890;DHT22;32625;51.080;16.970;2023-02-28T13:13:11;4.20;64.90
46890;DHT22;32625;51.080;16.970;2023-02-28T13:15:40;4.20;65.90
46890;DHT22;32625;51.080;16.970;2023-02-28T13:18:26;4.20;67.00
46890;DHT22;32625;51.080;16.970;2023-02-28T13:20:54;4.10;66.70
46890;DHT22;32625;51.080;16.970;2023-02-28T13:29:20;4.20;67.40
46890;DHT22;32625;51.080;16.970;2023-02-28T13:39:45;4.20;67.40
46890;DHT22;32625;51.080;16.970;2023-02-28T13:42:23;4.30;66.90
46890;DHT22;32625;51.080;16.970;2023-02-28T13:47:40;4.20;66.60
46890;DHT22;32625;51.080;16.970;2023-02-28T14:06:36;4.20;66.90
46890;DHT22;32625;51.080;16.970;2023-02-28T14:11:50;4.20;69.50
46890;DHT22;32625;51.080;16.970;2023-02-28T14:17:03;4.20;68.30
46890;DHT22;32625;51.080;16.970;2023-02-28T14:19:32;4.20;66.90
46890;DHT22;32625;51.080;16.970;2023-02-28T14:24:42;4.20;65.70
46890;DHT22;32625;51.080;16.970;2023-02-28T14:30:15;4.20;64.30
46890;DHT22;32625;51.080;16.970;2023-02-28T14:37:55;3.90;66.70
46890;DHT22;32625;51.080;16.970;2023-02-28T14:42:57;4.00;67.90
46890;DHT22;32625;51.080;16.970;2023-02-28T14:45:24;4.00;69.80
46890;DHT22;32625;51.080;16.970;2023-02-28T14:47:53;4.00;67.70
46890;DHT22;32625;51.080;16.970;2023-02-28T14:50:26;3.90;67.20
46890;DHT22;32625;51.080;16.970;2023-02-28T14:52:53;3.90;69.00
46890;DHT22;32625;51.080;16.970;2023-02-28T14:55:31;3.90;68.80
46890;DHT22;32625;51.080;16.970;2023-02-28T14:58:01;3.90;69.40
46890;DHT22;32625;51.080;16.970;2023-02-28T15:00:34;3.90;70.50
46890;DHT22;32625;51.080;16.970;2023-02-28T15:03:23;3.80;70.30
46890;DHT22;32625;51.080;16.970;2023-02-28T15:05:51;3.80;70.60
46890;DHT22;32625;51.080;16.970;2023-02-28T15:08:19;3.70;72.40
46890;DHT22;32625;51.080;16.970;2023-02-28T15:10:54;3.70;72.00
46890;DHT22;32625;51.080;16.970;2023-02-28T15:13:22;3.70;70.60
46890;DHT22;32625;51.080;16.970;2023-02-28T15:15:56;3.80;73.30
46890;DHT22;32625;51.080;16.970;2023-02-28T15:18:33;3.70;71.10
46890;DHT22;32625;51.080;16.970;2023-02-28T15:21:04;3.80;71.30
46890;DHT22;32625;51.080;16.970;2023-02-28T15:23:32;3.80;70.20
46890;DHT22;32625;51.080;16.970;2023-02-28T15:26:01;3.70;69.40
46890;DHT22;32625;51.080;16.970;2023-02-28T15:28:29;3.70;69.90
46890;DHT22;32625;51.080;16.970;2023-02-28T15:30:57;3.70;70.00
46890;DHT22;32625;51.080;16.970;2023-02-28T15:33:28;3.60;71.80
46890;DHT22;32625;51.080;16.970;2023-02-28T15:36:06;3.60;72.40
46890;DHT22;32625;51.080;16.970;2023-02-28T15:38:34;3.60;70.70
46890;DHT22;32625;51.080;16.970;2023-02-28T15:41:02;3.50;70.00
46890;DHT22;32625;51.080;16.970;2023-02-28T15:43:33;3.50;71.60
46890;DHT22;32625;51.080;16.970;2023-02-28T15:48:32;3.40;77.10
46890;DHT22;32625;51.080;16.970;2023-02-28T15:51:07;3.30;75.00
46890;DHT22;32625;51.080;16.970;2023-02-28T15:53:36;3.30;72.90
46890;DHT22;32625;51.080;16.970;2023-02-28T15:56:05;3.30;76.90
46890;DHT22;32625;51.080;16.970;2023-02-28T15:58:34;3.10;83.00
46890;DHT22;32625;51.080;16.970;2023-02-28T16:01:07;3.00;91.20
46890;DHT22;32625;51.080;16.970;2023-02-28T16:03:38;2.90;92.40
46890;DHT22;32625;51.080;16.970;2023-02-28T16:08:51;3.20;87.70
46890;DHT22;32625;51.080;16.970;2023-02-28T16:11:18;2.90;81.80
46890;DHT22;32625;51.080;16.970;2023-02-28T16:13:45;2.90;81.10
46890;DHT22;32625;51.080;16.970;2023-02-28T16:16:18;2.90;79.60
46890;DHT22;32625;51.080;16.970;2023-02-28T16:18:46;2.90;79.20
46890;DHT22;32625;51.080;16.970;2023-02-28T16:21:13;2.90;80.90
46890;DHT22;32625;51.080;16.970;2023-02-28T16:23:40;2.80;85.10
46890;DHT22;32625;51.080;16.970;2023-02-28T16:26:10;2.80;85.50
46890;DHT22;32625;51.080;16.970;2023-02-28T16:28:42;2.70;82.10
46890;DHT22;32625;51.080;16.970;2023-02-28T16:31:09;2.70;82.70
46890;DHT22;32625;51.080;16.970;2023-02-28T16:33:43;2.60;90.80
46890;DHT22;32625;51.080;16.970;2023-02-28T16:36:18;2.40;91.90
46890;DHT22;32625;51.080;16.970;2023-02-28T16:38:46;2.40;92.70
46890;DHT22;32625;51.080;16.970;2023-02-28T16:41:14;2.30;92.70
46890;DHT22;32625;51.080;16.970;2023-02-28T16:43:49;2.20;95.30
46890;DHT22;32625;51.080;16.970;2023-02-28T16:46:16;2.10;96.70
46890;DHT22;32625;51.080;16.970;2023-02-28T16:48:44;2.00;99.30
46890;DHT22;32625;51.080;16.970;2023-02-28T16:51:12;2.00;97.90
46890;DHT22;32625;51.080;16.970;2023-02-28T16:53:40;1.90;97.50
46890;DHT22;32625;51.080;16.970;2023-02-28T16:56:11;1.90;99.20
46890;DHT22;32625;51.080;16.970;2023-02-28T16:58:39;1.80;99.90
46890;DHT22;32625;51.080;16.970;2023-02-28T17:01:06;1.70;99.00
46890;DHT22;32625;51.080;16.970;2023-02-28T17:03:34;1.70;99.60
46890;DHT22;32625;51.080;16.970;2023-02-28T17:06:03;1.60;99.90
46890;DHT22;32625;51.080;16.970;2023-02-28T17:08:30;1.60;99.90
46890;DHT22;32625;51.080;16.970;2023-02-28T17:10:59;1.50;99.90
46890;DHT22;32625;51.080;16.970;2023-02-28T17:13:26;1.50;99.90
46890;DHT22;32625;51.080;16.970;2023-02-28T17:15:53;1.30;99.90
46890;DHT22;32625;51.080;16.970;2023-02-28T17:18:21;1.30;99.90
46890;DHT22;32625;51.080;16.970;2023-02-28T17:20:48;0.60;99.90
46890;DHT22;32625;51.080;16.970;2023-02-28T17:23:16;1.20;99.90
46890;DHT22;32625;51.080;16.970;2023-02-28T17:25:43;1.40;99.90
46890;DHT22;32625;51.080;16.970;2023-02-28T17:28:23;1.40;99.90
46890;DHT22;32625;51.080;16.970;2023-02-28T17:30:50;1.00;99.90
46890;DHT22;32625;51.080;16.970;2023-02-28T17:33:17;1.40;99.90
46890;DHT22;32625;51.080;16.970;2023-02-28T17:35:44;1.30;99.90
46890;DHT22;32625;51.080;16.970;2023-02-28T17:38:18;1.30;99.90